Time;durP1;ratioP1;P1;durP2;ratioP2;P2;SDS_P1;SDS_P2;PMS_P1;PMS_P2;Temp;Humidity;BMP_temperature;BMP_pressure;BME280_temperature;BME280_humidity;BME280_pressure;Samples;Min_cycle;Max_cycle;Signal;HPM_P1;HPM_P2
2021/08/08 00:00:29;;;;;;;17.88;12.98;;;14.80;99.90;;;;;;5072118;28;20021;-84
2021/08/08 00:02:56;;;;;;;17.85;13.63;;;14.80;99.90;;;;;;5071869;28;20028;-85
2021/08/08 00:05:21;;;;;;;22.08;13.30;;;14.70;99.90;;;;;;5062065;28;20035;-85
2021/08/08 00:07:48;;;;;;;25.75;14.90;;;14.80;99.90;;;;;;5071950;28;20020;-84
2021/08/08 00:10:14;;;;;;;20.77;12.95;;;14.80;99.90;;;;;;5072000;28;20477;-83
2021/08/08 00:12:41;;;;;;;18.20;12.95;;;14.90;99.90;;;;;;5071710;28;20033;-84
2021/08/08 00:15:09;;;;;;;15.70;13.63;;;14.90;99.90;;;;;;5077262;28;20024;-84
2021/08/08 00:17:35;;;;;;;19.67;12.18;;;14.90;99.90;;;;;;5091961;28;20032;-84
2021/08/08 00:20:01;;;;;;;15.82;11.98;;;15.00;99.90;;;;;;5092043;28;20024;-85
2021/08/08 00:22:26;;;;;;;25.23;12.82;;;14.90;99.90;;;;;;5091915;28;20081;-85
2021/08/08 00:24:52;;;;;;;18.67;11.93;;;14.80;99.90;;;;;;5091057;28;20032;-86
2021/08/08 00:27:18;;;;;;;18.90;12.45;;;14.90;99.90;;;;;;5071736;28;20038;-85
2021/08/08 00:29:43;;;;;;;17.75;11.70;;;14.90;99.90;;;;;;5087271;28;20483;-85
2021/08/08 00:32:09;;;;;;;16.27;11.95;;;14.90;99.90;;;;;;5091730;28;20378;-85
2021/08/08 00:34:34;;;;;;;13.25;10.82;;;14.90;99.90;;;;;;5077892;28;20484;-85
2021/08/08 00:37:00;;;;;;;14.90;12.57;;;14.80;99.90;;;;;;5071627;28;20059;-85
2021/08/08 00:39:26;;;;;;;24.63;12.00;;;14.90;99.90;;;;;;5072813;28;20060;-84
2021/08/08 00:41:52;;;;;;;27.90;13.35;;;14.90;99.90;;;;;;5078062;28;20028;-85
2021/08/08 00:44:17;;;;;;;16.00;11.50;;;15.00;99.90;;;;;;5086766;28;20430;-85
2021/08/08 00:46:43;;;;;;;15.20;11.95;;;15.00;99.90;;;;;;5098531;28;20028;-83
2021/08/08 00:49:09;;;;;;;14.38;12.70;;;15.10;99.90;;;;;;5098580;28;20024;-84
2021/08/08 00:51:36;;;;;;;18.05;13.27;;;15.00;99.90;;;;;;5098346;28;20065;-84
2021/08/08 00:54:02;;;;;;;24.13;12.20;;;15.10;99.90;;;;;;5094658;28;20060;-83
2021/08/08 00:56:29;;;;;;;16.15;11.95;;;15.10;99.90;;;;;;5078134;28;20113;-81
2021/08/08 00:58:57;;;;;;;21.48;10.43;;;15.10;99.90;;;;;;5078203;28;20108;-85
2021/08/08 01:01:27;;;;;;;10.77;9.07;;;15.00;99.90;;;;;;5077936;28;20036;-83
2021/08/08 01:03:54;;;;;;;17.73;8.90;;;15.00;99.90;;;;;;5078054;28;20488;-85
2021/08/08 01:06:41;;;;;;;11.52;8.82;;;14.90;99.90;;;;;;5097599;28;20085;-84
2021/08/08 01:09:11;;;;;;;14.27;8.38;;;14.90;99.90;;;;;;5098396;28;20086;-83
2021/08/08 01:11:38;;;;;;;18.27;7.70;;;14.90;99.90;;;;;;5098053;28;20466;-85
2021/08/08 01:14:06;;;;;;;11.80;6.30;;;14.80;99.90;;;;;;5098036;28;20381;-84
2021/08/08 01:16:32;;;;;;;15.93;5.15;;;14.80;99.90;;;;;;5079472;28;20036;-84
2021/08/08 01:18:59;;;;;;;5.72;3.95;;;14.70;99.90;;;;;;5079227;28;20499;-83
2021/08/08 01:21:29;;;;;;;7.38;4.05;;;14.70;99.90;;;;;;5077940;28;20566;-84
2021/08/08 01:23:59;;;;;;;8.95;2.55;;;14.60;99.90;;;;;;5078911;28;20052;-82
2021/08/08 01:26:27;;;;;;;16.55;2.50;;;14.40;99.90;;;;;;5077975;28;20147;-83
2021/08/08 01:28:54;;;;;;;2.38;1.30;;;14.50;99.90;;;;;;5077918;28;20365;-83
2021/08/08 01:33:54;;;;;;;10.50;1.90;;;14.30;99.90;;;;;;6157519;22;19911;-82
2021/08/08 01:36:21;;;;;;;8.27;1.42;;;14.30;99.90;;;;;;5108028;28;20040;-81
2021/08/08 01:39:08;;;;;;;5.97;1.25;;;14.30;99.90;;;;;;5077774;28;20025;-82
2021/08/08 01:41:50;;;;;;;6.70;1.63;;;14.20;99.90;;;;;;5076668;28;20115;-81
2021/08/08 01:44:18;;;;;;;6.53;1.55;;;14.20;99.90;;;;;;5076323;28;20109;-82
2021/08/08 01:46:45;;;;;;;3.70;0.95;;;14.10;99.90;;;;;;5092119;28;20502;-82
2021/08/08 01:49:12;;;;;;;3.85;1.02;;;14.00;99.90;;;;;;5098152;28;20024;-81
2021/08/08 01:51:38;;;;;;;6.88;1.00;;;13.90;99.90;;;;;;5095508;28;20040;-81
2021/08/08 01:54:04;;;;;;;2.75;0.90;;;13.80;99.90;;;;;;5093272;28;20025;-82
2021/08/08 01:56:30;;;;;;;4.45;1.27;;;13.80;99.90;;;;;;5092899;28;20376;-82
2021/08/08 01:58:55;;;;;;;5.80;1.85;;;13.80;99.90;;;;;;5093590;28;20384;-81
2021/08/08 02:01:27;;;;;;;6.38;1.20;;;13.70;99.90;;;;;;5093426;28;20024;-82
2021/08/08 02:03:52;;;;;;;6.82;1.88;;;13.70;99.90;;;;;;5094354;28;20019;-81
2021/08/08 02:06:18;;;;;;;4.40;1.15;;;13.60;99.90;;;;;;5093026;28;20016;-81
2021/08/08 02:08:44;;;;;;;4.22;1.30;;;13.60;99.90;;;;;;5094624;28;20016;-81
2021/08/08 02:11:09;;;;;;;4.05;1.10;;;13.60;99.90;;;;;;5093278;28;20027;-81
2021/08/08 02:13:35;;;;;;;2.35;1.10;;;13.60;99.90;;;;;;5093207;28;20027;-81
2021/08/08 02:16:00;;;;;;;4.88;1.42;;;13.60;99.90;;;;;;5092497;28;20031;-81
2021/08/08 02:18:26;;;;;;;1.92;1.00;;;13.50;99.90;;;;;;5094351;28;20491;-81
2021/08/08 02:20:52;;;;;;;5.82;1.33;;;13.40;99.90;;;;;;5094404;28;20024;-82
2021/08/08 02:23:17;;;;;;;6.75;1.35;;;13.40;99.90;;;;;;5094297;28;20067;-81
2021/08/08 02:25:43;;;;;;;2.58;1.00;;;13.40;99.90;;;;;;5093988;28;20074;-80
2021/08/08 02:28:09;;;;;;;6.57;1.42;;;13.30;99.90;;;;;;5093901;28;20503;-81
2021/08/08 02:30:36;;;;;;;1.30;1.15;;;13.30;99.90;;;;;;5092804;28;20499;-81
2021/08/08 02:33:01;;;;;;;2.97;1.13;;;13.30;99.90;;;;;;5094073;28;20437;-81
2021/08/08 02:35:27;;;;;;;3.88;1.27;;;13.30;99.90;;;;;;5092279;28;20130;-81
2021/08/08 02:37:53;;;;;;;3.03;1.10;;;13.20;99.90;;;;;;5092162;28;20399;-81
2021/08/08 02:40:18;;;;;;;7.70;1.45;;;13.10;99.90;;;;;;5094011;28;20020;-81
2021/08/08 02:42:44;;;;;;;4.03;1.20;;;13.20;99.90;;;;;;5092661;28;20012;-81
2021/08/08 02:45:10;;;;;;;3.03;1.55;;;13.10;99.90;;;;;;5092306;28;20155;-81
2021/08/08 02:47:35;;;;;;;1.88;1.05;;;13.10;99.90;;;;;;5092154;28;20028;-81
2021/08/08 02:50:01;;;;;;;1.88;1.15;;;13.00;99.90;;;;;;5092535;28;20025;-81
2021/08/08 02:52:27;;;;;;;2.30;0.85;;;13.00;99.90;;;;;;5093653;28;20055;-81
2021/08/08 02:54:52;;;;;;;2.53;1.95;;;12.90;99.90;;;;;;5093396;28;20020;-81
2021/08/08 02:57:18;;;;;;;1.85;1.52;;;12.90;99.90;;;;;;5092236;28;20046;-81
2021/08/08 02:59:43;;;;;;;5.15;1.25;;;12.80;99.90;;;;;;5091790;28;20498;-81
2021/08/08 03:02:09;;;;;;;3.78;1.40;;;12.70;99.90;;;;;;5093401;28;20024;-81
2021/08/08 03:04:35;;;;;;;6.82;1.48;;;12.70;99.90;;;;;;5093183;28;20027;-81
2021/08/08 03:07:00;;;;;;;3.25;1.40;;;12.70;99.90;;;;;;5092223;28;20028;-81
2021/08/08 03:09:26;;;;;;;4.28;1.30;;;12.60;99.90;;;;;;5091875;28;20073;-82
2021/08/08 03:11:52;;;;;;;4.10;1.33;;;12.60;99.90;;;;;;5092121;28;20020;-81
2021/08/08 03:14:18;;;;;;;2.08;1.88;;;12.50;99.90;;;;;;5091739;28;20027;-81
2021/08/08 03:16:46;;;;;;;1.80;1.70;;;12.50;99.90;;;;;;5093149;28;20031;-81
2021/08/08 03:19:13;;;;;;;8.25;2.10;;;12.50;99.90;;;;;;5091674;28;20023;-81
2021/08/08 03:21:39;;;;;;;3.88;1.70;;;12.50;99.90;;;;;;5091908;28;20028;-81
2021/08/08 03:24:05;;;;;;;7.68;2.33;;;12.40;99.90;;;;;;5091615;28;20020;-81
2021/08/08 03:26:33;;;;;;;6.53;2.10;;;12.40;99.90;;;;;;5091791;28;20024;-81
2021/08/08 03:28:59;;;;;;;5.22;2.47;;;12.40;99.90;;;;;;5091500;28;20028;-81
2021/08/08 03:31:27;;;;;;;3.85;2.22;;;12.30;99.90;;;;;;5091398;28;20078;-80
2021/08/08 03:33:54;;;;;;;3.88;2.72;;;12.30;99.90;;;;;;5092783;28;20093;-81
2021/08/08 03:36:20;;;;;;;3.67;2.05;;;12.20;99.90;;;;;;5091572;28;20023;-80
2021/08/08 03:38:46;;;;;;;8.07;2.70;;;12.20;99.90;;;;;;5091355;28;20016;-81
2021/08/08 03:41:12;;;;;;;11.75;3.30;;;12.10;99.90;;;;;;5091554;28;20540;-81
2021/08/08 03:43:37;;;;;;;6.18;3.30;;;12.10;99.90;;;;;;5092618;28;20036;-80
2021/08/08 03:46:03;;;;;;;2.83;2.63;;;12.10;99.90;;;;;;5092556;28;20102;-81
2021/08/08 03:48:28;;;;;;;3.45;2.50;;;12.10;99.90;;;;;;5091445;28;20032;-81
2021/08/08 03:50:54;;;;;;;3.00;2.05;;;12.10;99.90;;;;;;5092368;28;20507;-80
2021/08/08 03:53:19;;;;;;;10.32;3.20;;;12.00;99.90;;;;;;5091303;28;20028;-80
2021/08/08 03:55:45;;;;;;;4.97;3.83;;;12.00;99.90;;;;;;5090916;28;20020;-81
2021/08/08 03:58:11;;;;;;;8.82;4.05;;;12.10;99.90;;;;;;5091182;28;20016;-81
2021/08/08 04:00:36;;;;;;;18.35;4.50;;;12.10;99.90;;;;;;5092117;28;20074;-81
2021/08/08 04:03:02;;;;;;;11.43;4.70;;;12.10;99.90;;;;;;5091184;28;20020;-81
2021/08/08 04:05:27;;;;;;;9.05;4.25;;;12.20;99.90;;;;;;5090777;28;20032;-82
2021/08/08 04:07:53;;;;;;;12.00;3.65;;;12.20;99.90;;;;;;5091151;28;20016;-81
2021/08/08 04:10:19;;;;;;;4.88;3.95;;;12.30;99.90;;;;;;5092076;28;20016;-81
2021/08/08 04:12:44;;;;;;;8.88;3.90;;;12.30;99.90;;;;;;5092110;28;20024;-81
2021/08/08 04:15:10;;;;;;;7.47;3.60;;;12.30;99.90;;;;;;5091431;28;20051;-81
2021/08/08 04:17:36;;;;;;;7.13;3.90;;;12.30;99.90;;;;;;5092117;28;20487;-81
2021/08/08 04:20:02;;;;;;;5.35;3.92;;;12.30;99.90;;;;;;5092162;28;20099;-81
2021/08/08 04:22:28;;;;;;;8.95;4.20;;;12.30;99.90;;;;;;5091801;28;20544;-81
2021/08/08 04:24:53;;;;;;;10.07;5.07;;;12.30;99.90;;;;;;5091560;28;20067;-81
2021/08/08 04:27:19;;;;;;;6.80;4.88;;;12.40;99.90;;;;;;5090728;28;20026;-80
2021/08/08 04:29:45;;;;;;;8.57;4.75;;;12.40;99.90;;;;;;5092020;28;20052;-80
2021/08/08 04:32:10;;;;;;;8.70;5.13;;;12.40;99.90;;;;;;5091763;28;20055;-81
2021/08/08 04:34:36;;;;;;;6.85;4.25;;;12.50;99.90;;;;;;5091669;28;20070;-81
2021/08/08 04:37:02;;;;;;;8.00;5.00;;;12.60;99.90;;;;;;5091976;28;20033;-81
2021/08/08 04:39:28;;;;;;;5.97;4.63;;;12.60;99.90;;;;;;5091932;28;20107;-80
2021/08/08 04:41:54;;;;;;;10.13;5.18;;;12.70;99.90;;;;;;5090257;28;20107;-81
2021/08/08 04:44:20;;;;;;;11.85;5.97;;;12.70;99.90;;;;;;5090338;28;20047;-81
2021/08/08 04:46:46;;;;;;;5.57;4.85;;;12.80;99.90;;;;;;5091902;28;20024;-81
2021/08/08 04:49:11;;;;;;;12.13;5.38;;;12.90;99.90;;;;;;5090595;28;20471;-81
2021/08/08 04:51:37;;;;;;;6.72;5.40;;;13.00;99.90;;;;;;5090258;28;20036;-82
2021/08/08 04:54:03;;;;;;;10.95;5.53;;;13.00;99.90;;;;;;5091517;28;20032;-81
2021/08/08 04:56:28;;;;;;;12.77;5.03;;;13.00;99.90;;;;;;5090414;28;20040;-81
2021/08/08 04:58:54;;;;;;;11.07;5.20;;;13.00;99.90;;;;;;5091830;28;20025;-80
2021/08/08 05:01:19;;;;;;;9.38;6.45;;;13.20;99.90;;;;;;5091755;28;20020;-81
2021/08/08 05:03:45;;;;;;;11.25;6.82;;;13.20;99.90;;;;;;5091083;28;20132;-80
2021/08/08 05:06:10;;;;;;;13.05;7.38;;;13.20;99.90;;;;;;5090429;28;20511;-81
2021/08/08 05:08:36;;;;;;;14.30;8.65;;;13.30;99.90;;;;;;5091701;28;20032;-80
2021/08/08 05:11:01;;;;;;;14.30;8.73;;;13.40;99.90;;;;;;5090534;28;20039;-80
2021/08/08 05:13:30;;;;;;;13.07;8.68;;;13.50;99.90;;;;;;5091282;28;20040;-80
2021/08/08 05:15:56;;;;;;;14.32;10.05;;;13.50;99.90;;;;;;5090008;28;20028;-80
2021/08/08 05:18:21;;;;;;;16.58;9.45;;;13.50;99.90;;;;;;5091658;28;20368;-80
2021/08/08 05:20:47;;;;;;;14.80;9.85;;;13.70;99.90;;;;;;5090390;28;20031;-80
2021/08/08 05:23:12;;;;;;;19.13;10.63;;;13.60;99.90;;;;;;5091312;28;20030;-81
2021/08/08 05:25:38;;;;;;;19.55;11.30;;;13.60;99.90;;;;;;5089851;28;20108;-80
2021/08/08 05:28:04;;;;;;;16.50;12.40;;;13.60;99.90;;;;;;5094494;28;20103;-80
2021/08/08 05:30:29;;;;;;;21.45;11.32;;;13.70;99.90;;;;;;5094017;28;20081;-81
2021/08/08 05:32:55;;;;;;;16.60;13.82;;;13.80;99.90;;;;;;5093856;28;20118;-80
2021/08/08 05:35:20;;;;;;;17.92;12.93;;;14.00;99.90;;;;;;5094763;28;20040;-81
2021/08/08 05:37:46;;;;;;;21.38;14.02;;;14.00;99.90;;;;;;5095234;28;20050;-81
2021/08/08 05:40:12;;;;;;;20.83;15.13;;;14.20;99.90;;;;;;5093765;28;20030;-80
2021/08/08 05:42:38;;;;;;;20.65;14.55;;;14.30;99.90;;;;;;5093815;28;20379;-82
2021/08/08 05:45:05;;;;;;;17.15;13.65;;;14.40;99.90;;;;;;5094117;28;20035;-81
2021/08/08 05:47:31;;;;;;;20.80;15.15;;;14.50;99.90;;;;;;5095019;28;20057;-81
2021/08/08 05:49:57;;;;;;;19.40;14.15;;;14.50;99.90;;;;;;5095024;28;20107;-80
2021/08/08 05:52:23;;;;;;;23.65;16.27;;;14.50;99.90;;;;;;5094975;28;20475;-80
2021/08/08 05:54:48;;;;;;;20.30;13.95;;;14.60;99.90;;;;;;5092796;28;20077;-81
2021/08/08 05:57:14;;;;;;;22.48;14.68;;;14.60;99.90;;;;;;5094761;28;20051;-81
2021/08/08 05:59:40;;;;;;;26.45;16.52;;;14.70;99.90;;;;;;5094707;28;20091;-80
2021/08/08 06:02:05;;;;;;;30.05;17.33;;;14.80;99.90;;;;;;5091860;28;20166;-81
2021/08/08 06:04:31;;;;;;;22.58;14.68;;;14.70;99.90;;;;;;5092560;28;20081;-81
2021/08/08 06:06:57;;;;;;;19.00;14.73;;;14.80;99.90;;;;;;5094347;28;20051;-81
2021/08/08 06:09:22;;;;;;;34.83;17.15;;;14.90;99.90;;;;;;5094297;28;20024;-80
2021/08/08 06:11:48;;;;;;;25.23;16.63;;;15.00;99.90;;;;;;5093020;28;20030;-82
2021/08/08 06:14:14;;;;;;;24.88;16.40;;;15.00;99.90;;;;;;5093685;28;20024;-81
2021/08/08 06:16:39;;;;;;;25.58;16.27;;;15.10;99.90;;;;;;5093011;28;20036;-81
2021/08/08 06:19:05;;;;;;;22.75;14.55;;;15.20;99.90;;;;;;5094284;28;20103;-81
2021/08/08 06:21:30;;;;;;;23.38;15.70;;;15.20;99.90;;;;;;5092944;28;20024;-81
2021/08/08 06:23:56;;;;;;;30.52;15.32;;;15.20;99.90;;;;;;5093794;28;20020;-80
2021/08/08 06:26:22;;;;;;;30.08;15.32;;;15.20;99.90;;;;;;5092709;28;20035;-81
2021/08/08 06:28:48;;;;;;;22.50;14.55;;;15.30;99.90;;;;;;5094386;28;20127;-80
2021/08/08 06:31:14;;;;;;;29.67;15.45;;;15.30;99.90;;;;;;5092793;28;20498;-81
2021/08/08 06:33:39;;;;;;;32.83;14.18;;;15.40;99.90;;;;;;5093828;28;20024;-82
2021/08/08 06:36:05;;;;;;;16.73;12.77;;;15.40;99.90;;;;;;5093300;28;20028;-80
2021/08/08 06:38:31;;;;;;;18.52;12.05;;;15.50;99.90;;;;;;5092110;28;20020;-81
2021/08/08 06:40:56;;;;;;;23.67;12.77;;;15.50;99.90;;;;;;5092608;28;20024;-80
2021/08/08 06:43:22;;;;;;;19.25;12.07;;;15.70;99.90;;;;;;5092542;28;20020;-81
2021/08/08 06:45:47;;;;;;;18.30;11.75;;;15.70;99.90;;;;;;5091953;28;20114;-82
2021/08/08 06:48:13;;;;;;;20.90;11.93;;;15.70;99.90;;;;;;5092412;28;20368;-81
2021/08/08 06:50:38;;;;;;;14.55;11.00;;;15.80;99.90;;;;;;5093995;28;20438;-81
2021/08/08 06:53:04;;;;;;;17.95;9.27;;;16.00;99.90;;;;;;5093504;28;20468;-81
2021/08/08 06:55:29;;;;;;;20.50;10.10;;;15.80;99.90;;;;;;5092816;28;20043;-81
2021/08/08 06:57:55;;;;;;;14.98;9.63;;;15.80;99.90;;;;;;5092296;28;20126;-80
2021/08/08 07:00:20;;;;;;;21.52;9.80;;;16.00;99.90;;;;;;5093461;28;20020;-80
2021/08/08 07:02:46;;;;;;;14.98;9.13;;;16.00;99.90;;;;;;5092251;28;20027;-81
2021/08/08 07:05:12;;;;;;;15.73;8.43;;;16.00;99.90;;;;;;5091758;28;20027;-80
2021/08/08 07:07:38;;;;;;;12.18;8.13;;;16.10;99.90;;;;;;5091449;28;20032;-80
2021/08/08 07:10:04;;;;;;;15.88;8.68;;;16.30;99.90;;;;;;5092017;28;20706;-81
2021/08/08 07:12:30;;;;;;;13.02;7.60;;;16.50;99.90;;;;;;5093269;28;20082;-81
2021/08/08 07:14:56;;;;;;;15.90;6.55;;;16.80;99.90;;;;;;5092915;28;20024;-82
2021/08/08 07:17:21;;;;;;;8.90;5.18;;;17.00;99.90;;;;;;5092907;28;20110;-81
2021/08/08 07:19:47;;;;;;;9.25;5.18;;;17.30;99.90;;;;;;5091493;28;20525;-81
2021/08/08 07:22:12;;;;;;;10.75;4.93;;;17.10;99.90;;;;;;5091796;28;20089;-81
2021/08/08 07:24:38;;;;;;;8.45;5.10;;;17.10;99.90;;;;;;5091367;28;20028;-81
2021/08/08 07:27:03;;;;;;;10.05;4.95;;;16.80;99.90;;;;;;5091506;28;20070;-81
2021/08/08 07:29:29;;;;;;;11.85;5.75;;;16.80;99.90;;;;;;5091663;28;20032;-81
2021/08/08 07:31:55;;;;;;;18.75;6.07;;;16.70;99.90;;;;;;5091662;28;20032;-82
2021/08/08 07:34:21;;;;;;;11.93;5.00;;;16.60;99.90;;;;;;5092623;28;20063;-81
2021/08/08 07:36:47;;;;;;;12.15;5.40;;;16.60;99.90;;;;;;5092431;28;20110;-81
2021/08/08 07:39:13;;;;;;;10.20;5.00;;;16.70;99.90;;;;;;5091445;28;20498;-82
2021/08/08 07:41:39;;;;;;;14.95;6.03;;;16.70;99.90;;;;;;5091071;28;20166;-81
2021/08/08 07:44:05;;;;;;;17.38;6.18;;;16.70;99.90;;;;;;5091229;28;20050;-79
2021/08/08 07:46:30;;;;;;;11.35;4.88;;;16.70;99.90;;;;;;5091306;28;20024;-80
2021/08/08 07:48:56;;;;;;;10.52;5.10;;;16.50;99.90;;;;;;5091792;28;20036;-81
2021/08/08 07:51:21;;;;;;;10.82;4.95;;;16.30;99.90;;;;;;5092276;28;20107;-81
2021/08/08 07:53:47;;;;;;;17.70;5.75;;;16.30;99.90;;;;;;5092091;28;20063;-81
2021/08/08 07:56:13;;;;;;;18.05;5.85;;;16.30;99.90;;;;;;5092431;28;20467;-81
2021/08/08 07:58:38;;;;;;;10.98;5.90;;;16.20;99.90;;;;;;5091662;28;20043;-82
2021/08/08 08:01:04;;;;;;;13.13;6.03;;;16.20;99.90;;;;;;5091199;28;20028;-82
2021/08/08 08:03:30;;;;;;;13.98;6.22;;;16.10;99.90;;;;;;5090894;28;20613;-83
2021/08/08 08:05:56;;;;;;;11.38;5.95;;;16.10;99.90;;;;;;5090671;28;20118;-82
2021/08/08 08:08:21;;;;;;;18.23;6.32;;;16.20;99.90;;;;;;5091963;28;20528;-82
2021/08/08 08:10:47;;;;;;;7.45;5.10;;;16.30;99.90;;;;;;5092214;28;20032;-80
2021/08/08 08:13:13;;;;;;;12.32;6.22;;;16.30;99.90;;;;;;5090667;28;20087;-81
2021/08/08 08:15:39;;;;;;;9.93;5.68;;;16.50;99.90;;;;;;5091839;28;20076;-82
2021/08/08 08:18:04;;;;;;;8.40;5.65;;;16.60;99.90;;;;;;5090875;28;20024;-81
2021/08/08 08:20:30;;;;;;;20.85;6.60;;;16.60;99.90;;;;;;5091979;28;20024;-82
2021/08/08 08:22:56;;;;;;;10.77;6.82;;;16.80;99.90;;;;;;5092078;28;20052;-82
2021/08/08 08:25:22;;;;;;;13.02;6.53;;;17.10;99.90;;;;;;5091557;28;20052;-82
2021/08/08 08:27:49;;;;;;;8.02;5.25;;;17.50;99.90;;;;;;5092113;28;20023;-82
2021/08/08 08:30:15;;;;;;;12.18;5.18;;;17.70;99.90;;;;;;5092044;28;20097;-82
2021/08/08 08:32:41;;;;;;;15.00;5.28;;;18.10;99.90;;;;;;5090837;28;20070;-82
2021/08/08 08:35:07;;;;;;;6.82;3.88;;;18.40;99.90;;;;;;5091078;28;20036;-83
2021/08/08 08:37:33;;;;;;;8.95;3.70;;;18.80;99.90;;;;;;5091781;28;20032;-82
2021/08/08 08:40:01;;;;;;;13.48;4.88;;;18.80;99.90;;;;;;5090555;28;20024;-81
2021/08/08 08:42:28;;;;;;;8.15;3.05;;;19.30;99.90;;;;;;5090634;28;20020;-82
2021/08/08 08:44:55;;;;;;;10.25;2.55;;;19.10;99.90;;;;;;5091348;28;20029;-81
2021/08/08 08:47:21;;;;;;;8.85;2.67;;;19.50;99.90;;;;;;5090430;28;20053;-82
2021/08/08 08:49:50;;;;;;;6.10;3.15;;;19.30;99.90;;;;;;5091736;28;20063;-81
2021/08/08 08:52:24;;;;;;;5.50;2.78;;;18.90;99.90;;;;;;5090590;28;20024;-81
2021/08/08 08:54:50;;;;;;;6.93;3.30;;;18.80;99.90;;;;;;5091123;28;20024;-83
2021/08/08 08:57:16;;;;;;;10.02;3.40;;;18.60;99.90;;;;;;5091682;28;20070;-83
2021/08/08 08:59:43;;;;;;;8.32;3.25;;;18.20;99.90;;;;;;5091770;28;20024;-81
2021/08/08 09:02:10;;;;;;;6.53;3.53;;;18.40;99.90;;;;;;5093700;28;20035;-82
2021/08/08 09:04:36;;;;;;;7.82;2.75;;;18.20;99.90;;;;;;5094229;28;20031;-81
2021/08/08 09:07:03;;;;;;;6.00;2.13;;;18.70;99.90;;;;;;5095395;28;20032;-81
2021/08/08 09:09:30;;;;;;;12.63;2.53;;;19.10;99.90;;;;;;5084477;28;20055;-81
2021/08/08 09:11:55;;;;;;;8.07;1.52;;;19.40;99.90;;;;;;5090084;28;20031;-84
2021/08/08 09:14:22;;;;;;;11.02;1.42;;;19.60;99.90;;;;;;5089842;28;20020;-82
2021/08/08 09:16:55;;;;;;;5.15;1.65;;;19.40;99.90;;;;;;5090255;28;20039;-80
2021/08/08 09:19:27;;;;;;;2.10;1.25;;;19.40;99.90;;;;;;5089889;28;20085;-83
2021/08/08 09:21:53;;;;;;;2.47;1.20;;;19.40;99.90;;;;;;5089817;28;20395;-82
2021/08/08 09:24:29;;;;;;;7.55;2.08;;;19.30;99.90;;;;;;5089609;28;20088;-82
2021/08/08 09:27:06;;;;;;;6.50;1.63;;;19.40;99.90;;;;;;5089219;28;20492;-84
2021/08/08 09:29:32;;;;;;;5.40;2.05;;;19.10;99.90;;;;;;5091032;28;20603;-82
2021/08/08 09:31:59;;;;;;;6.15;1.90;;;19.00;99.90;;;;;;5089561;28;20399;-83
2021/08/08 09:34:33;;;;;;;5.93;2.03;;;18.90;99.90;;;;;;5089344;28;20033;-82
2021/08/08 09:37:22;;;;;;;5.80;2.58;;;18.60;99.90;;;;;;5089102;28;20032;-82
2021/08/08 09:39:54;;;;;;;8.90;2.30;;;18.50;99.90;;;;;;5076810;28;20052;-82
2021/08/08 09:42:25;;;;;;;5.10;2.30;;;18.90;99.90;;;;;;5089317;28;20028;-83
2021/08/08 09:44:57;;;;;;;7.60;1.80;;;19.40;99.90;;;;;;5090535;28;20384;-86
2021/08/08 09:47:40;;;;;;;5.50;1.70;;;19.70;99.90;;;;;;5090492;28;20040;-85
2021/08/08 09:50:10;;;;;;;8.32;2.58;;;19.90;99.90;;;;;;5089443;28;20087;-83
2021/08/08 09:52:37;;;;;;;9.43;2.10;;;19.80;99.90;;;;;;5090721;28;20028;-82
2021/08/08 09:55:15;;;;;;;5.25;1.55;;;20.10;99.90;;;;;;5089223;28;20052;-83
2021/08/08 09:57:41;;;;;;;4.35;1.83;;;20.50;99.90;;;;;;5084922;28;20119;-82
2021/08/08 10:00:08;;;;;;;3.75;2.05;;;20.80;99.90;;;;;;5090638;28;20547;-83
2021/08/08 10:02:34;;;;;;;7.07;1.70;;;20.60;99.90;;;;;;5089450;28;20026;-83
2021/08/08 10:05:00;;;;;;;8.70;2.38;;;20.80;99.90;;;;;;5090091;28;20446;-83
2021/08/08 10:07:28;;;;;;;6.68;2.03;;;20.70;99.90;;;;;;5088959;28;20051;-83
2021/08/08 10:09:57;;;;;;;5.53;1.75;;;20.80;99.90;;;;;;5090277;28;20484;-82
2021/08/08 10:13:08;;;;;;;6.35;1.88;;;20.60;99.90;;;;;;5088137;28;20028;-82
2021/08/08 10:15:39;;;;;;;8.00;2.03;;;20.60;99.90;;;;;;5059237;28;20044;-82
2021/08/08 10:18:06;;;;;;;5.13;1.65;;;20.40;99.90;;;;;;5080611;28;20020;-81
2021/08/08 10:20:34;;;;;;;12.50;1.92;;;20.40;99.90;;;;;;5090425;28;20023;-81
2021/08/08 10:23:01;;;;;;;6.65;2.13;;;20.30;99.90;;;;;;5089796;28;20039;-83
2021/08/08 10:25:27;;;;;;;7.35;1.58;;;20.90;99.90;;;;;;5088815;28;20437;-85
2021/08/08 10:27:53;;;;;;;4.97;1.52;;;21.40;99.90;;;;;;5089934;28;20504;-81
2021/08/08 10:30:19;;;;;;;9.25;2.53;;;21.60;99.90;;;;;;5089182;28;20038;-85
2021/08/08 10:32:45;;;;;;;7.03;1.92;;;21.90;99.90;;;;;;5089802;28;20067;-82
2021/08/08 10:35:12;;;;;;;9.27;2.00;;;22.40;99.90;;;;;;5088131;28;20127;-82
2021/08/08 10:37:40;;;;;;;6.10;2.15;;;22.20;99.90;;;;;;5089557;28;20039;-82
2021/08/08 10:40:06;;;;;;;7.85;2.58;;;21.00;99.90;;;;;;5088479;28;20104;-85
2021/08/08 10:42:46;;;;;;;8.10;2.15;;;20.40;99.90;;;;;;5087700;28;20024;-82
2021/08/08 10:45:26;;;;;;;9.88;3.20;;;19.70;99.90;;;;;;5083974;28;20437;-84
2021/08/08 10:47:55;;;;;;;14.15;3.80;;;18.70;99.90;;;;;;5092467;28;20048;-84
2021/08/08 10:50:22;;;;;;;14.95;4.53;;;18.30;99.90;;;;;;5092568;28;20411;-83
2021/08/08 10:52:48;;;;;;;16.48;5.13;;;17.80;99.90;;;;;;5093226;28;20047;-82
2021/08/08 10:55:25;;;;;;;7.22;4.38;;;17.50;99.90;;;;;;5092159;28;20064;-84
2021/08/08 10:57:51;;;;;;;10.73;2.90;;;17.40;99.90;;;;;;5093474;28;20059;-79
2021/08/08 11:00:17;;;;;;;6.65;3.20;;;17.10;99.90;;;;;;5092389;28;20068;-84
2021/08/08 11:02:44;;;;;;;12.65;3.95;;;16.80;99.90;;;;;;5093624;28;20103;-81
2021/08/08 11:05:18;;;;;;;11.25;3.90;;;16.50;99.90;;;;;;5092933;28;20042;-84
2021/08/08 11:07:45;;;;;;;10.30;3.72;;;16.40;99.90;;;;;;5092098;28;20060;-81
2021/08/08 11:10:12;;;;;;;13.88;3.90;;;16.30;99.90;;;;;;5093463;28;20031;-82
2021/08/08 11:12:41;;;;;;;14.60;5.00;;;16.40;99.90;;;;;;5093405;28;20039;-82
2021/08/08 11:15:11;;;;;;;16.77;4.47;;;16.30;99.90;;;;;;5091424;28;20074;-81
2021/08/08 11:17:37;;;;;;;19.80;4.93;;;16.20;99.90;;;;;;5091769;28;20024;-82
2021/08/08 11:20:06;;;;;;;21.35;5.93;;;16.30;99.90;;;;;;5093231;28;20035;-82
2021/08/08 11:22:32;;;;;;;19.48;5.00;;;16.40;99.90;;;;;;5093044;28;20488;-82
2021/08/08 11:25:07;;;;;;;25.25;6.32;;;16.50;99.90;;;;;;5092523;28;20107;-81
2021/08/08 11:27:36;;;;;;;15.23;6.05;;;16.60;99.90;;;;;;5092989;28;20113;-82
2021/08/08 11:30:08;;;;;;;29.08;7.30;;;16.70;99.90;;;;;;5093079;28;20418;-82
2021/08/08 11:32:35;;;;;;;28.27;5.63;;;17.50;99.90;;;;;;5093014;28;20047;-83
2021/08/08 11:35:06;;;;;;;25.23;5.95;;;18.10;99.90;;;;;;5092294;28;20484;-81
2021/08/08 11:37:34;;;;;;;26.67;5.93;;;18.30;99.90;;;;;;5092714;28;20069;-82
2021/08/08 11:40:00;;;;;;;19.40;4.80;;;18.70;99.90;;;;;;5091489;28;20027;-83
2021/08/08 11:42:30;;;;;;;31.50;5.20;;;18.80;99.90;;;;;;5092866;28;20020;-82
2021/08/08 11:44:56;;;;;;;21.65;4.63;;;18.70;99.90;;;;;;5090777;28;20059;-83
2021/08/08 11:47:26;;;;;;;29.20;5.18;;;18.60;99.90;;;;;;5091524;28;20082;-83
2021/08/08 11:49:52;;;;;;;18.45;3.92;;;18.50;99.90;;;;;;5092550;28;20020;-82
2021/08/08 11:52:19;;;;;;;15.48;3.45;;;18.20;99.90;;;;;;5092936;28;20032;-83
2021/08/08 11:54:48;;;;;;;18.80;3.63;;;18.10;99.90;;;;;;5090926;28;20097;-83
2021/08/08 11:57:31;;;;;;;13.65;3.33;;;18.00;99.90;;;;;;5091110;28;20058;-82
2021/08/08 11:59:57;;;;;;;21.65;5.28;;;17.80;99.90;;;;;;5091222;28;20053;-83
2021/08/08 12:02:24;;;;;;;20.45;4.60;;;18.10;99.90;;;;;;5091181;28;20024;-83
2021/08/08 12:04:54;;;;;;;17.05;3.35;;;17.90;99.90;;;;;;5092063;28;20564;-84
2021/08/08 12:07:25;;;;;;;19.65;4.30;;;18.10;99.90;;;;;;5090829;28;20400;-82
2021/08/08 12:09:52;;;;;;;29.80;4.43;;;18.10;99.90;;;;;;5092098;28;20563;-81
2021/08/08 12:12:19;;;;;;;21.35;4.30;;;18.10;99.90;;;;;;5090867;28;20119;-82
2021/08/08 12:14:46;;;;;;;27.77;4.10;;;18.10;99.90;;;;;;5090710;28;20039;-81
2021/08/08 12:17:22;;;;;;;19.05;4.78;;;18.20;99.90;;;;;;5090476;28;20162;-81
2021/08/08 12:19:49;;;;;;;19.48;4.32;;;18.60;99.90;;;;;;5091859;28;20024;-83
2021/08/08 12:22:18;;;;;;;25.92;4.47;;;18.90;99.90;;;;;;5091998;28;20395;-80
2021/08/08 12:24:49;;;;;;;23.25;4.70;;;18.90;99.90;;;;;;5091907;28;20085;-82
2021/08/08 12:27:30;;;;;;;26.52;3.83;;;19.00;99.90;;;;;;5091780;28;20089;-81
2021/08/08 12:29:57;;;;;;;21.60;4.32;;;19.30;99.90;;;;;;5092116;28;20502;-83
2021/08/08 12:32:23;;;;;;;23.60;4.93;;;19.30;99.90;;;;;;5092026;28;20552;-82
2021/08/08 12:34:50;;;;;;;10.65;1.98;;;19.10;99.90;;;;;;5089996;28;20067;-82
2021/08/08 12:37:20;;;;;;;13.43;2.60;;;18.30;99.90;;;;;;5091307;28;20024;-84
2021/08/08 12:39:46;;;;;;;11.35;3.55;;;17.30;99.90;;;;;;5090761;28;20020;-82